sensor_id;sensor_type;location;lat;lon;timestamp;P1;durP1;ratioP1;P2;durP2;ratioP2
86007;SDS011;76587;41.936;25.550;2024-03-08T00:01:52;47.60;;;19.42;;
86007;SDS011;76587;41.936;25.550;2024-03-08T00:04:18;48.72;;;20.40;;
86007;SDS011;76587;41.936;25.550;2024-03-08T00:06:43;44.38;;;20.60;;
86007;SDS011;76587;41.936;25.550;2024-03-08T00:09:11;50.40;;;20.23;;
86007;SDS011;76587;41.936;25.550;2024-03-08T00:11:37;51.40;;;20.73;;
86007;SDS011;76587;41.936;25.550;2024-03-08T00:14:02;42.53;;;19.95;;
86007;SDS011;76587;41.936;25.550;2024-03-08T00:16:32;39.85;;;18.15;;
86007;SDS011;76587;41.936;25.550;2024-03-08T00:18:58;43.45;;;19.40;;
86007;SDS011;76587;41.936;25.550;2024-03-08T00:21:24;50.38;;;20.92;;
86007;SDS011;76587;41.936;25.550;2024-03-08T00:23:49;52.83;;;22.60;;
86007;SDS011;76587;41.936;25.550;2024-03-08T00:26:14;46.20;;;21.17;;
86007;SDS011;76587;41.936;25.550;2024-03-08T00:28:40;45.50;;;20.85;;
86007;SDS011;76587;41.936;25.550;2024-03-08T00:31:05;40.28;;;18.35;;
86007;SDS011;76587;41.936;25.550;2024-03-08T00:33:32;42.00;;;18.52;;
86007;SDS011;76587;41.936;25.550;2024-03-08T00:35:57;51.35;;;20.65;;
86007;SDS011;76587;41.936;25.550;2024-03-08T00:38:23;44.05;;;20.90;;
86007;SDS011;76587;41.936;25.550;2024-03-08T00:40:48;44.97;;;21.33;;
86007;SDS011;76587;41.936;25.550;2024-03-08T00:43:13;49.88;;;21.60;;
86007;SDS011;76587;41.936;25.550;2024-03-08T00:45:40;44.65;;;20.23;;
86007;SDS011;76587;41.936;25.550;2024-03-08T00:48:08;43.85;;;19.00;;
86007;SDS011;76587;41.936;25.550;2024-03-08T00:50:34;42.88;;;18.02;;
86007;SDS011;76587;41.936;25.550;2024-03-08T00:52:59;41.60;;;18.85;;
86007;SDS011;76587;41.936;25.550;2024-03-08T00:55:25;42.55;;;18.05;;
86007;SDS011;76587;41.936;25.550;2024-03-08T00:57:51;48.30;;;20.88;;
86007;SDS011;76587;41.936;25.550;2024-03-08T01:00:18;41.92;;;19.15;;
86007;SDS011;76587;41.936;25.550;2024-03-08T01:02:45;42.33;;;19.58;;
86007;SDS011;76587;41.936;25.550;2024-03-08T01:05:11;43.67;;;20.83;;
86007;SDS011;76587;41.936;25.550;2024-03-08T01:07:36;42.08;;;18.67;;
86007;SDS011;76587;41.936;25.550;2024-03-08T01:10:02;44.47;;;19.42;;
86007;SDS011;76587;41.936;25.550;2024-03-08T01:12:28;52.88;;;21.42;;
86007;SDS011;76587;41.936;25.550;2024-03-08T01:14:55;48.20;;;21.25;;
86007;SDS011;76587;41.936;25.550;2024-03-08T01:17:20;46.15;;;20.63;;
86007;SDS011;76587;41.936;25.550;2024-03-08T01:19:46;51.95;;;22.25;;
86007;SDS011;76587;41.936;25.550;2024-03-08T01:22:12;50.08;;;21.80;;
86007;SDS011;76587;41.936;25.550;2024-03-08T01:24:37;44.95;;;20.23;;
86007;SDS011;76587;41.936;25.550;2024-03-08T01:27:03;55.65;;;23.23;;
86007;SDS011;76587;41.936;25.550;2024-03-08T01:29:29;54.83;;;22.30;;
86007;SDS011;76587;41.936;25.550;2024-03-08T01:31:55;47.80;;;22.33;;
86007;SDS011;76587;41.936;25.550;2024-03-08T01:34:21;50.55;;;21.13;;
86007;SDS011;76587;41.936;25.550;2024-03-08T01:36:49;49.47;;;22.10;;
86007;SDS011;76587;41.936;25.550;2024-03-08T01:39:15;54.95;;;22.92;;
86007;SDS011;76587;41.936;25.550;2024-03-08T01:41:40;50.22;;;20.23;;
86007;SDS011;76587;41.936;25.550;2024-03-08T01:44:06;54.17;;;19.60;;
86007;SDS011;76587;41.936;25.550;2024-03-08T01:46:34;46.15;;;18.67;;
86007;SDS011;76587;41.936;25.550;2024-03-08T01:49:00;47.38;;;20.58;;
86007;SDS011;76587;41.936;25.550;2024-03-08T01:51:26;52.78;;;20.67;;
86007;SDS011;76587;41.936;25.550;2024-03-08T01:53:54;50.35;;;21.95;;
86007;SDS011;76587;41.936;25.550;2024-03-08T01:56:20;44.13;;;19.25;;
86007;SDS011;76587;41.936;25.550;2024-03-08T01:58:46;41.25;;;19.92;;
86007;SDS011;76587;41.936;25.550;2024-03-08T02:01:12;42.60;;;19.38;;
86007;SDS011;76587;41.936;25.550;2024-03-08T02:03:41;38.45;;;18.67;;
86007;SDS011;76587;41.936;25.550;2024-03-08T02:06:08;44.80;;;21.65;;
86007;SDS011;76587;41.936;25.550;2024-03-08T02:08:36;38.97;;;18.38;;
86007;SDS011;76587;41.936;25.550;2024-03-08T02:11:02;41.03;;;19.40;;
86007;SDS011;76587;41.936;25.550;2024-03-08T02:13:28;55.20;;;22.65;;
86007;SDS011;76587;41.936;25.550;2024-03-08T02:15:54;50.97;;;22.33;;
86007;SDS011;76587;41.936;25.550;2024-03-08T02:18:21;39.38;;;15.73;;
86007;SDS011;76587;41.936;25.550;2024-03-08T02:20:51;40.60;;;18.67;;
86007;SDS011;76587;41.936;25.550;2024-03-08T02:23:21;42.45;;;19.23;;
86007;SDS011;76587;41.936;25.550;2024-03-08T02:25:47;44.97;;;18.83;;
86007;SDS011;76587;41.936;25.550;2024-03-08T02:28:13;43.67;;;18.23;;
86007;SDS011;76587;41.936;25.550;2024-03-08T02:30:39;45.35;;;18.05;;
86007;SDS011;76587;41.936;25.550;2024-03-08T02:33:05;50.42;;;20.48;;
86007;SDS011;76587;41.936;25.550;2024-03-08T02:35:32;51.80;;;22.05;;
86007;SDS011;76587;41.936;25.550;2024-03-08T02:37:58;44.25;;;20.77;;
86007;SDS011;76587;41.936;25.550;2024-03-08T02:40:27;50.65;;;21.50;;
86007;SDS011;76587;41.936;25.550;2024-03-08T02:42:52;44.22;;;18.60;;
86007;SDS011;76587;41.936;25.550;2024-03-08T02:45:18;45.92;;;19.60;;
86007;SDS011;76587;41.936;25.550;2024-03-08T02:47:43;45.55;;;20.15;;
86007;SDS011;76587;41.936;25.550;2024-03-08T02:50:09;52.72;;;21.42;;
86007;SDS011;76587;41.936;25.550;2024-03-08T02:52:34;49.22;;;18.77;;
86007;SDS011;76587;41.936;25.550;2024-03-08T02:55:03;44.83;;;19.10;;
86007;SDS011;76587;41.936;25.550;2024-03-08T02:57:31;45.40;;;19.50;;
86007;SDS011;76587;41.936;25.550;2024-03-08T02:59:57;48.45;;;20.17;;
86007;SDS011;76587;41.936;25.550;2024-03-08T03:02:24;49.58;;;20.40;;
86007;SDS011;76587;41.936;25.550;2024-03-08T03:04:51;54.55;;;23.67;;
86007;SDS011;76587;41.936;25.550;2024-03-08T03:07:17;48.47;;;21.58;;
86007;SDS011;76587;41.936;25.550;2024-03-08T03:09:42;47.53;;;18.73;;
86007;SDS011;76587;41.936;25.550;2024-03-08T03:12:08;48.13;;;21.27;;
86007;SDS011;76587;41.936;25.550;2024-03-08T03:14:36;47.88;;;21.13;;
86007;SDS011;76587;41.936;25.550;2024-03-08T03:17:05;55.08;;;23.13;;
86007;SDS011;76587;41.936;25.550;2024-03-08T03:19:30;56.58;;;23.58;;
86007;SDS011;76587;41.936;25.550;2024-03-08T03:21:56;51.65;;;19.42;;
86007;SDS011;76587;41.936;25.550;2024-03-08T03:24:22;52.35;;;21.15;;
86007;SDS011;76587;41.936;25.550;2024-03-08T03:26:48;57.58;;;22.10;;
86007;SDS011;76587;41.936;25.550;2024-03-08T03:29:14;49.70;;;20.55;;
86007;SDS011;76587;41.936;25.550;2024-03-08T03:31:42;53.10;;;21.60;;
86007;SDS011;76587;41.936;25.550;2024-03-08T03:36:37;38.33;;;17.10;;
86007;SDS011;76587;41.936;25.550;2024-03-08T03:39:07;40.70;;;17.80;;
86007;SDS011;76587;41.936;25.550;2024-03-08T03:41:38;40.20;;;17.45;;
86007;SDS011;76587;41.936;25.550;2024-03-08T03:44:04;41.90;;;19.40;;
86007;SDS011;76587;41.936;25.550;2024-03-08T03:46:31;50.13;;;20.02;;
86007;SDS011;76587;41.936;25.550;2024-03-08T03:48:57;48.58;;;19.77;;
86007;SDS011;76587;41.936;25.550;2024-03-08T03:51:23;50.33;;;22.80;;
86007;SDS011;76587;41.936;25.550;2024-03-08T03:53:49;52.15;;;20.90;;
86007;SDS011;76587;41.936;25.550;2024-03-08T03:56:15;56.42;;;22.88;;
86007;SDS011;76587;41.936;25.550;2024-03-08T03:58:40;51.90;;;20.67;;
86007;SDS011;76587;41.936;25.550;2024-03-08T04:01:06;47.10;;;21.20;;
86007;SDS011;76587;41.936;25.550;2024-03-08T04:03:31;52.13;;;22.65;;
86007;SDS011;76587;41.936;25.550;2024-03-08T04:05:56;57.22;;;23.08;;
86007;SDS011;76587;41.936;25.550;2024-03-08T04:08:22;51.97;;;21.30;;
86007;SDS011;76587;41.936;25.550;2024-03-08T04:10:49;56.08;;;22.58;;
86007;SDS011;76587;41.936;25.550;2024-03-08T04:13:16;60.20;;;23.50;;
86007;SDS011;76587;41.936;25.550;2024-03-08T04:15:41;49.20;;;21.83;;
86007;SDS011;76587;41.936;25.550;2024-03-08T04:18:09;54.25;;;24.02;;
86007;SDS011;76587;41.936;25.550;2024-03-08T04:20:34;52.33;;;21.45;;
86007;SDS011;76587;41.936;25.550;2024-03-08T04:23:00;59.55;;;22.05;;
86007;SDS011;76587;41.936;25.550;2024-03-08T04:25:26;59.72;;;22.48;;
86007;SDS011;76587;41.936;25.550;2024-03-08T04:27:52;52.00;;;20.25;;
86007;SDS011;76587;41.936;25.550;2024-03-08T04:30:17;52.78;;;22.48;;
86007;SDS011;76587;41.936;25.550;2024-03-08T04:32:43;57.45;;;21.50;;
86007;SDS011;76587;41.936;25.550;2024-03-08T04:35:09;65.70;;;24.98;;
86007;SDS011;76587;41.936;25.550;2024-03-08T04:37:34;52.53;;;20.40;;
86007;SDS011;76587;41.936;25.550;2024-03-08T04:40:00;59.30;;;23.25;;
86007;SDS011;76587;41.936;25.550;2024-03-08T04:42:28;50.08;;;20.30;;
86007;SDS011;76587;41.936;25.550;2024-03-08T04:44:54;48.03;;;21.10;;
86007;SDS011;76587;41.936;25.550;2024-03-08T04:47:20;56.03;;;24.00;;
86007;SDS011;76587;41.936;25.550;2024-03-08T04:49:45;58.28;;;21.52;;
86007;SDS011;76587;41.936;25.550;2024-03-08T04:52:11;51.30;;;20.35;;
86007;SDS011;76587;41.936;25.550;2024-03-08T04:54:37;52.42;;;20.23;;
86007;SDS011;76587;41.936;25.550;2024-03-08T04:57:02;60.00;;;23.58;;
86007;SDS011;76587;41.936;25.550;2024-03-08T04:59:29;51.28;;;20.00;;
86007;SDS011;76587;41.936;25.550;2024-03-08T05:01:55;52.22;;;20.08;;
86007;SDS011;76587;41.936;25.550;2024-03-08T05:04:21;47.10;;;19.73;;
86007;SDS011;76587;41.936;25.550;2024-03-08T05:06:47;44.22;;;20.20;;
86007;SDS011;76587;41.936;25.550;2024-03-08T05:09:13;49.35;;;20.52;;
86007;SDS011;76587;41.936;25.550;2024-03-08T05:11:39;46.30;;;18.98;;
86007;SDS011;76587;41.936;25.550;2024-03-08T05:14:05;63.65;;;25.90;;
86007;SDS011;76587;41.936;25.550;2024-03-08T05:16:31;50.55;;;19.42;;
86007;SDS011;76587;41.936;25.550;2024-03-08T05:18:56;46.30;;;19.00;;
86007;SDS011;76587;41.936;25.550;2024-03-08T05:21:22;49.22;;;20.67;;
86007;SDS011;76587;41.936;25.550;2024-03-08T05:23:48;48.88;;;20.30;;
86007;SDS011;76587;41.936;25.550;2024-03-08T05:26:16;44.65;;;18.67;;
86007;SDS011;76587;41.936;25.550;2024-03-08T05:28:42;40.58;;;17.85;;
86007;SDS011;76587;41.936;25.550;2024-03-08T05:31:08;46.13;;;20.23;;
86007;SDS011;76587;41.936;25.550;2024-03-08T05:33:33;37.08;;;17.77;;
86007;SDS011;76587;41.936;25.550;2024-03-08T05:36:02;51.13;;;19.02;;
86007;SDS011;76587;41.936;25.550;2024-03-08T05:38:29;36.65;;;16.40;;
86007;SDS011;76587;41.936;25.550;2024-03-08T05:40:54;42.13;;;18.63;;
86007;SDS011;76587;41.936;25.550;2024-03-08T05:43:20;43.38;;;18.85;;
86007;SDS011;76587;41.936;25.550;2024-03-08T05:45:46;43.10;;;18.58;;
86007;SDS011;76587;41.936;25.550;2024-03-08T05:48:12;43.53;;;18.90;;
86007;SDS011;76587;41.936;25.550;2024-03-08T05:50:38;41.67;;;19.95;;
86007;SDS011;76587;41.936;25.550;2024-03-08T05:53:04;40.30;;;16.73;;
86007;SDS011;76587;41.936;25.550;2024-03-08T05:55:32;43.85;;;19.55;;
86007;SDS011;76587;41.936;25.550;2024-03-08T05:58:01;44.22;;;19.33;;
86007;SDS011;76587;41.936;25.550;2024-03-08T06:00:27;38.70;;;17.65;;
86007;SDS011;76587;41.936;25.550;2024-03-08T06:02:52;47.78;;;22.52;;
86007;SDS011;76587;41.936;25.550;2024-03-08T06:05:18;43.47;;;19.50;;
86007;SDS011;76587;41.936;25.550;2024-03-08T06:07:44;42.30;;;19.92;;
86007;SDS011;76587;41.936;25.550;2024-03-08T06:10:10;39.20;;;17.63;;
86007;SDS011;76587;41.936;25.550;2024-03-08T06:12:39;42.10;;;18.45;;
86007;SDS011;76587;41.936;25.550;2024-03-08T06:15:09;39.88;;;16.92;;
86007;SDS011;76587;41.936;25.550;2024-03-08T06:17:38;35.78;;;17.33;;
86007;SDS011;76587;41.936;25.550;2024-03-08T06:20:03;44.15;;;18.85;;
86007;SDS011;76587;41.936;25.550;2024-03-08T06:22:35;42.53;;;16.95;;
86007;SDS011;76587;41.936;25.550;2024-03-08T06:25:06;42.60;;;18.10;;
86007;SDS011;76587;41.936;25.550;2024-03-08T06:27:32;34.70;;;15.80;;
86007;SDS011;76587;41.936;25.550;2024-03-08T06:29:59;40.03;;;18.65;;
86007;SDS011;76587;41.936;25.550;2024-03-08T06:32:29;44.70;;;19.80;;
86007;SDS011;76587;41.936;25.550;2024-03-08T06:34:55;42.10;;;18.42;;
86007;SDS011;76587;41.936;25.550;2024-03-08T06:37:20;50.20;;;19.27;;
86007;SDS011;76587;41.936;25.550;2024-03-08T06:39:49;60.75;;;25.77;;
86007;SDS011;76587;41.936;25.550;2024-03-08T06:42:16;44.15;;;20.30;;
86007;SDS011;76587;41.936;25.550;2024-03-08T06:44:42;41.15;;;18.98;;
86007;SDS011;76587;41.936;25.550;2024-03-08T06:47:14;39.83;;;17.67;;
86007;SDS011;76587;41.936;25.550;2024-03-08T06:49:41;34.97;;;17.27;;
86007;SDS011;76587;41.936;25.550;2024-03-08T06:52:07;32.33;;;15.45;;
86007;SDS011;76587;41.936;25.550;2024-03-08T06:54:34;33.67;;;16.35;;
86007;SDS011;76587;41.936;25.550;2024-03-08T06:57:01;30.00;;;13.88;;
86007;SDS011;76587;41.936;25.550;2024-03-08T06:59:33;31.40;;;14.90;;
86007;SDS011;76587;41.936;25.550;2024-03-08T07:04:44;32.08;;;14.80;;
86007;SDS011;76587;41.936;25.550;2024-03-08T07:07:10;34.13;;;15.88;;
86007;SDS011;76587;41.936;25.550;2024-03-08T07:09:35;35.55;;;15.57;;
86007;SDS011;76587;41.936;25.550;2024-03-08T07:12:02;39.00;;;16.63;;
86007;SDS011;76587;41.936;25.550;2024-03-08T07:14:27;37.97;;;17.15;;
86007;SDS011;76587;41.936;25.550;2024-03-08T07:16:53;32.42;;;16.17;;
86007;SDS011;76587;41.936;25.550;2024-03-08T07:19:19;34.35;;;16.90;;
86007;SDS011;76587;41.936;25.550;2024-03-08T07:21:44;35.90;;;18.13;;
86007;SDS011;76587;41.936;25.550;2024-03-08T07:24:10;36.13;;;18.27;;
86007;SDS011;76587;41.936;25.550;2024-03-08T07:26:45;48.90;;;18.27;;
86007;SDS011;76587;41.936;25.550;2024-03-08T07:29:17;37.72;;;18.45;;
86007;SDS011;76587;41.936;25.550;2024-03-08T07:31:42;37.08;;;19.10;;
86007;SDS011;76587;41.936;25.550;2024-03-08T07:34:26;40.75;;;18.63;;
86007;SDS011;76587;41.936;25.550;2024-03-08T07:36:52;40.15;;;18.27;;
86007;SDS011;76587;41.936;25.550;2024-03-08T07:39:18;37.47;;;17.42;;
86007;SDS011;76587;41.936;25.550;2024-03-08T07:41:44;39.08;;;19.92;;
86007;SDS011;76587;41.936;25.550;2024-03-08T07:44:09;40.60;;;17.33;;
86007;SDS011;76587;41.936;25.550;2024-03-08T07:46:35;45.80;;;18.33;;
86007;SDS011;76587;41.936;25.550;2024-03-08T07:49:02;39.42;;;19.45;;
86007;SDS011;76587;41.936;25.550;2024-03-08T07:51:28;35.10;;;17.02;;
86007;SDS011;76587;41.936;25.550;2024-03-08T07:53:53;37.35;;;17.52;;
86007;SDS011;76587;41.936;25.550;2024-03-08T07:56:20;42.95;;;17.15;;
86007;SDS011;76587;41.936;25.550;2024-03-08T07:58:46;39.42;;;17.50;;
86007;SDS011;76587;41.936;25.550;2024-03-08T08:01:16;34.97;;;16.65;;
86007;SDS011;76587;41.936;25.550;2024-03-08T08:03:42;38.78;;;17.27;;
86007;SDS011;76587;41.936;25.550;2024-03-08T08:06:08;32.80;;;16.65;;
86007;SDS011;76587;41.936;25.550;2024-03-08T08:08:34;37.22;;;17.38;;
86007;SDS011;76587;41.936;25.550;2024-03-08T08:11:01;31.65;;;16.88;;
86007;SDS011;76587;41.936;25.550;2024-03-08T08:13:27;37.55;;;17.50;;
86007;SDS011;76587;41.936;25.550;2024-03-08T08:18:22;34.60;;;17.42;;
86007;SDS011;76587;41.936;25.550;2024-03-08T08:20:50;42.95;;;18.23;;
86007;SDS011;76587;41.936;25.550;2024-03-08T08:23:15;33.90;;;16.10;;
86007;SDS011;76587;41.936;25.550;2024-03-08T08:25:41;36.22;;;16.38;;
86007;SDS011;76587;41.936;25.550;2024-03-08T08:28:06;38.25;;;17.08;;
86007;SDS011;76587;41.936;25.550;2024-03-08T08:30:32;34.83;;;16.25;;
86007;SDS011;76587;41.936;25.550;2024-03-08T08:32:58;35.00;;;15.27;;
86007;SDS011;76587;41.936;25.550;2024-03-08T08:35:25;38.10;;;17.98;;
86007;SDS011;76587;41.936;25.550;2024-03-08T08:37:51;39.92;;;19.77;;
86007;SDS011;76587;41.936;25.550;2024-03-08T08:40:17;38.35;;;16.17;;
86007;SDS011;76587;41.936;25.550;2024-03-08T08:42:44;35.38;;;17.95;;
86007;SDS011;76587;41.936;25.550;2024-03-08T08:45:10;34.53;;;17.05;;
86007;SDS011;76587;41.936;25.550;2024-03-08T08:47:36;36.95;;;18.10;;
86007;SDS011;76587;41.936;25.550;2024-03-08T08:50:02;40.88;;;17.77;;
86007;SDS011;76587;41.936;25.550;2024-03-08T08:52:29;37.95;;;18.63;;
86007;SDS011;76587;41.936;25.550;2024-03-08T08:54:55;33.08;;;16.80;;
86007;SDS011;76587;41.936;25.550;2024-03-08T08:57:21;40.50;;;17.60;;
86007;SDS011;76587;41.936;25.550;2024-03-08T08:59:47;44.60;;;18.75;;
86007;SDS011;76587;41.936;25.550;2024-03-08T09:02:12;45.80;;;19.80;;
86007;SDS011;76587;41.936;25.550;2024-03-08T09:04:39;41.92;;;18.90;;
86007;SDS011;76587;41.936;25.550;2024-03-08T09:07:04;41.53;;;20.52;;
86007;SDS011;76587;41.936;25.550;2024-03-08T09:09:31;36.28;;;17.80;;
86007;SDS011;76587;41.936;25.550;2024-03-08T09:11:57;41.60;;;18.98;;
86007;SDS011;76587;41.936;25.550;2024-03-08T09:14:23;44.45;;;21.63;;
86007;SDS011;76587;41.936;25.550;2024-03-08T09:16:51;43.28;;;20.30;;
86007;SDS011;76587;41.936;25.550;2024-03-08T09:19:16;46.75;;;20.05;;
86007;SDS011;76587;41.936;25.550;2024-03-08T09:21:42;49.05;;;21.98;;
86007;SDS011;76587;41.936;25.550;2024-03-08T09:24:07;36.88;;;19.45;;
86007;SDS011;76587;41.936;25.550;2024-03-08T09:26:33;34.42;;;16.95;;
86007;SDS011;76587;41.936;25.550;2024-03-08T09:28:59;45.92;;;19.58;;
86007;SDS011;76587;41.936;25.550;2024-03-08T09:31:24;45.58;;;19.83;;
86007;SDS011;76587;41.936;25.550;2024-03-08T09:33:51;33.58;;;17.98;;
86007;SDS011;76587;41.936;25.550;2024-03-08T09:36:16;38.38;;;16.38;;
86007;SDS011;76587;41.936;25.550;2024-03-08T09:38:42;33.08;;;19.55;;
86007;SDS011;76587;41.936;25.550;2024-03-08T09:41:08;35.42;;;17.90;;
86007;SDS011;76587;41.936;25.550;2024-03-08T09:43:35;43.53;;;19.55;;
86007;SDS011;76587;41.936;25.550;2024-03-08T09:46:01;36.20;;;17.23;;
86007;SDS011;76587;41.936;25.550;2024-03-08T09:48:28;34.28;;;16.08;;
86007;SDS011;76587;41.936;25.550;2024-03-08T09:50:54;33.05;;;15.82;;
86007;SDS011;76587;41.936;25.550;2024-03-08T09:53:21;32.88;;;16.38;;
86007;SDS011;76587;41.936;25.550;2024-03-08T09:55:47;27.73;;;14.32;;
86007;SDS011;76587;41.936;25.550;2024-03-08T09:58:14;29.60;;;14.15;;
86007;SDS011;76587;41.936;25.550;2024-03-08T10:00:42;36.45;;;16.00;;
86007;SDS011;76587;41.936;25.550;2024-03-08T10:03:08;29.38;;;15.60;;
86007;SDS011;76587;41.936;25.550;2024-03-08T10:05:34;27.48;;;14.65;;
86007;SDS011;76587;41.936;25.550;2024-03-08T10:07:59;35.17;;;14.75;;
86007;SDS011;76587;41.936;25.550;2024-03-08T10:10:25;30.90;;;13.77;;
86007;SDS011;76587;41.936;25.550;2024-03-08T10:12:51;32.20;;;14.32;;
86007;SDS011;76587;41.936;25.550;2024-03-08T10:15:17;30.20;;;15.20;;
86007;SDS011;76587;41.936;25.550;2024-03-08T10:17:42;23.92;;;12.18;;
86007;SDS011;76587;41.936;25.550;2024-03-08T10:20:15;22.95;;;11.32;;
86007;SDS011;76587;41.936;25.550;2024-03-08T10:22:42;20.58;;;10.95;;
86007;SDS011;76587;41.936;25.550;2024-03-08T10:25:09;24.98;;;13.48;;
86007;SDS011;76587;41.936;25.550;2024-03-08T10:27:38;20.67;;;10.85;;
86007;SDS011;76587;41.936;25.550;2024-03-08T10:30:06;19.65;;;9.98;;
86007;SDS011;76587;41.936;25.550;2024-03-08T10:32:37;17.85;;;10.90;;
86007;SDS011;76587;41.936;25.550;2024-03-08T10:35:03;16.17;;;9.70;;
86007;SDS011;76587;41.936;25.550;2024-03-08T10:37:28;25.88;;;12.18;;
86007;SDS011;76587;41.936;25.550;2024-03-08T10:40:04;24.42;;;12.13;;
86007;SDS011;76587;41.936;25.550;2024-03-08T10:42:35;21.15;;;11.57;;
86007;SDS011;76587;41.936;25.550;2024-03-08T10:45:19;25.33;;;11.88;;
86007;SDS011;76587;41.936;25.550;2024-03-08T10:47:52;20.75;;;10.55;;
86007;SDS011;76587;41.936;25.550;2024-03-08T10:50:24;16.33;;;10.13;;
86007;SDS011;76587;41.936;25.550;2024-03-08T10:52:51;17.77;;;9.95;;
86007;SDS011;76587;41.936;25.550;2024-03-08T10:55:18;16.27;;;10.18;;
86007;SDS011;76587;41.936;25.550;2024-03-08T10:57:45;15.38;;;9.48;;
86007;SDS011;76587;41.936;25.550;2024-03-08T11:00:12;14.63;;;7.60;;
86007;SDS011;76587;41.936;25.550;2024-03-08T11:02:39;17.60;;;8.82;;
86007;SDS011;76587;41.936;25.550;2024-03-08T11:08:19;16.48;;;9.32;;
86007;SDS011;76587;41.936;25.550;2024-03-08T11:16:01;14.25;;;7.90;;
86007;SDS011;76587;41.936;25.550;2024-03-08T11:18:32;17.55;;;9.05;;
86007;SDS011;76587;41.936;25.550;2024-03-08T11:21:01;15.27;;;8.75;;
86007;SDS011;76587;41.936;25.550;2024-03-08T11:23:31;15.00;;;8.43;;
86007;SDS011;76587;41.936;25.550;2024-03-08T11:25:58;14.60;;;8.73;;
86007;SDS011;76587;41.936;25.550;2024-03-08T11:28:24;15.13;;;8.95;;
86007;SDS011;76587;41.936;25.550;2024-03-08T11:33:26;12.07;;;6.68;;
86007;SDS011;76587;41.936;25.550;2024-03-08T11:38:42;16.73;;;8.85;;
86007;SDS011;76587;41.936;25.550;2024-03-08T11:41:09;21.05;;;9.75;;
86007;SDS011;76587;41.936;25.550;2024-03-08T11:43:39;15.70;;;7.13;;
86007;SDS011;76587;41.936;25.550;2024-03-08T11:46:10;15.65;;;7.63;;
86007;SDS011;76587;41.936;25.550;2024-03-08T11:48:40;10.25;;;5.90;;
86007;SDS011;76587;41.936;25.550;2024-03-08T11:51:12;16.48;;;8.10;;
86007;SDS011;76587;41.936;25.550;2024-03-08T11:53:38;11.15;;;5.93;;
86007;SDS011;76587;41.936;25.550;2024-03-08T11:56:05;11.30;;;7.03;;
86007;SDS011;76587;41.936;25.550;2024-03-08T11:58:36;14.43;;;6.43;;
86007;SDS011;76587;41.936;25.550;2024-03-08T12:01:05;13.40;;;7.40;;
86007;SDS011;76587;41.936;25.550;2024-03-08T12:03:37;16.17;;;8.32;;
86007;SDS011;76587;41.936;25.550;2024-03-08T12:06:07;14.98;;;8.15;;
86007;SDS011;76587;41.936;25.550;2024-03-08T12:08:34;16.35;;;7.95;;
86007;SDS011;76587;41.936;25.550;2024-03-08T12:11:00;16.30;;;7.85;;
86007;SDS011;76587;41.936;25.550;2024-03-08T12:13:34;13.73;;;8.10;;
86007;SDS011;76587;41.936;25.550;2024-03-08T12:16:01;17.05;;;8.73;;
86007;SDS011;76587;41.936;25.550;2024-03-08T12:18:32;21.38;;;9.23;;
86007;SDS011;76587;41.936;25.550;2024-03-08T12:21:08;14.15;;;7.90;;
86007;SDS011;76587;41.936;25.550;2024-03-08T12:23:47;14.88;;;8.05;;
86007;SDS011;76587;41.936;25.550;2024-03-08T12:26:25;14.18;;;7.63;;
86007;SDS011;76587;41.936;25.550;2024-03-08T12:28:51;20.63;;;8.95;;
86007;SDS011;76587;41.936;25.550;2024-03-08T12:31:17;17.70;;;8.32;;
86007;SDS011;76587;41.936;25.550;2024-03-08T12:36:18;15.90;;;9.75;;
86007;SDS011;76587;41.936;25.550;2024-03-08T12:38:48;18.13;;;8.77;;
86007;SDS011;76587;41.936;25.550;2024-03-08T12:41:18;14.90;;;7.75;;
86007;SDS011;76587;41.936;25.550;2024-03-08T12:43:44;15.02;;;6.20;;
86007;SDS011;76587;41.936;25.550;2024-03-08T12:46:16;16.80;;;9.05;;
86007;SDS011;76587;41.936;25.550;2024-03-08T12:51:12;15.00;;;9.23;;
86007;SDS011;76587;41.936;25.550;2024-03-08T12:53:38;21.35;;;11.40;;
86007;SDS011;76587;41.936;25.550;2024-03-08T12:56:06;20.00;;;9.82;;
86007;SDS011;76587;41.936;25.550;2024-03-08T12:58:33;18.42;;;10.77;;
86007;SDS011;76587;41.936;25.550;2024-03-08T13:01:01;23.83;;;12.07;;
86007;SDS011;76587;41.936;25.550;2024-03-08T13:03:29;24.65;;;12.57;;
86007;SDS011;76587;41.936;25.550;2024-03-08T13:05:56;18.38;;;10.25;;
86007;SDS011;76587;41.936;25.550;2024-03-08T13:08:22;25.23;;;12.07;;
86007;SDS011;76587;41.936;25.550;2024-03-08T13:10:50;21.88;;;12.23;;
86007;SDS011;76587;41.936;25.550;2024-03-08T13:13:16;22.90;;;11.63;;
86007;SDS011;76587;41.936;25.550;2024-03-08T13:15:42;19.48;;;11.23;;
86007;SDS011;76587;41.936;25.550;2024-03-08T13:18:08;24.23;;;12.48;;
86007;SDS011;76587;41.936;25.550;2024-03-08T13:20:35;22.58;;;12.23;;
86007;SDS011;76587;41.936;25.550;2024-03-08T13:23:03;20.45;;;9.90;;
86007;SDS011;76587;41.936;25.550;2024-03-08T13:25:30;18.52;;;10.93;;
86007;SDS011;76587;41.936;25.550;2024-03-08T13:27:56;17.88;;;9.23;;
86007;SDS011;76587;41.936;25.550;2024-03-08T13:30:24;18.15;;;9.55;;
86007;SDS011;76587;41.936;25.550;2024-03-08T13:32:51;23.10;;;11.13;;
86007;SDS011;76587;41.936;25.550;2024-03-08T13:35:17;25.27;;;11.02;;
86007;SDS011;76587;41.936;25.550;2024-03-08T13:37:49;17.30;;;9.02;;
86007;SDS011;76587;41.936;25.550;2024-03-08T13:40:16;10.95;;;6.28;;
86007;SDS011;76587;41.936;25.550;2024-03-08T13:42:45;10.77;;;6.50;;
86007;SDS011;76587;41.936;25.550;2024-03-08T13:45:11;15.55;;;6.40;;
86007;SDS011;76587;41.936;25.550;2024-03-08T13:47:40;10.80;;;5.72;;
86007;SDS011;76587;41.936;25.550;2024-03-08T13:50:07;10.05;;;6.15;;
86007;SDS011;76587;41.936;25.550;2024-03-08T13:52:36;14.75;;;7.70;;
86007;SDS011;76587;41.936;25.550;2024-03-08T13:55:03;18.48;;;8.43;;
86007;SDS011;76587;41.936;25.550;2024-03-08T13:57:32;10.20;;;5.40;;
86007;SDS011;76587;41.936;25.550;2024-03-08T13:59:58;11.57;;;5.43;;
86007;SDS011;76587;41.936;25.550;2024-03-08T14:02:24;11.13;;;7.00;;
86007;SDS011;76587;41.936;25.550;2024-03-08T14:04:55;10.23;;;5.50;;
86007;SDS011;76587;41.936;25.550;2024-03-08T14:07:22;10.60;;;5.60;;
86007;SDS011;76587;41.936;25.550;2024-03-08T14:09:48;13.13;;;5.80;;
86007;SDS011;76587;41.936;25.550;2024-03-08T14:12:15;12.63;;;6.32;;
86007;SDS011;76587;41.936;25.550;2024-03-08T14:14:42;8.27;;;4.95;;
86007;SDS011;76587;41.936;25.550;2024-03-08T14:17:09;8.00;;;5.22;;
86007;SDS011;76587;41.936;25.550;2024-03-08T14:19:36;12.13;;;6.10;;
86007;SDS011;76587;41.936;25.550;2024-03-08T14:22:02;11.85;;;5.95;;
86007;SDS011;76587;41.936;25.550;2024-03-08T14:24:32;11.02;;;5.82;;
86007;SDS011;76587;41.936;25.550;2024-03-08T14:27:00;10.88;;;5.68;;
86007;SDS011;76587;41.936;25.550;2024-03-08T14:29:28;10.32;;;4.93;;
86007;SDS011;76587;41.936;25.550;2024-03-08T14:31:55;10.80;;;5.75;;
86007;SDS011;76587;41.936;25.550;2024-03-08T14:34:27;12.30;;;6.60;;
86007;SDS011;76587;41.936;25.550;2024-03-08T14:36:54;14.15;;;7.68;;